KHLB/HLB METAR and TAF weather

Enter ICAO airport designator
Station Type Date Time Source
KHLB METAR 2021/09/16 10:35 UTC NOAA

KHLB 161035Z AUTO 00000KT 10SM OVC016 14/14 A3008 RMK A01


Station Type Date Time Source
KHLB Decoded METAR 2021/09/16 10:35 UTC NOAA

Station name not available
Sep 16, 2021 - 06:35 AM EDT / 2021.09.16 1035 UTC
Wind: Calm:0
Visibility: 10 mile(s):0
Sky conditions: overcast
Temperature: 57 F (14 C)
Dew Point: 57 F (14 C)
Relative Humidity: 100%
Pressure (altimeter): 30.08 in. Hg (1018 hPa)
ob: KHLB 161035Z AUTO 00000KT 10SM OVC016 14/14 A3008 RMK A01
cycle: 10

Station Type Date Time Source
KHLB TAF UTC NOAA

Error!

Example: see airport list